الصفحة الرئيسية
METAR-TAF:

METAR-TAF

مطار :

مطار برست

برست, بيلاروسيا

دائرة عرض: 52-06-30N, خط طول: 023-53-48E, ارتفاع: 143 متر

مراقبة الطقس الحالي

تاريخ ووقت الإصدار 12ساعات و 16 دقيقة قبل الساعة 13:30UTC
ريح 6 عقدة من الغرب/الشمال الغربي
درجة الحرارة 29°درجة مئوية
الرطوبة 43%
ضغط 1017 hPa
الرؤية: 9000 متر
غيوم قليلة على ارتفاع 4000 قدم
غيوم مفككة على ارتفاع 10000 قدم

METAR: UMBB 171330Z 29003MPS 9000 FEW040 BKN100 29/15 Q1017 NOSIG

زمن: 04:46 (01:46 UTC)

توقعات

تاريخ ووقت الإصدار 14ساعات و 46 دقيقة قبل الساعة 11:00UTC
التوقعات صالحة من17 الساعة 12 UTC إلى 17 الساعة 21 UTC
ريح 6 عقدة من الغرب/الشمال الغربي تتزايد حتى 16 عقدة
الرؤية: 6000 متر
غيوم متفرقة على ارتفاع 3000 قدم
مؤقت
من 17 الساعة 18 UTC إلى 17 الساعة 21 UTC
الرؤية: 4000 متر
غيوم مفككة على ارتفاع 1600 قدم
غيوم متفرقة على ارتفاع 2000 قدم, مزنة ركامية.
زخات من الأمطار الخفيفة,

TAF: UMBB 171100Z 1712/1721 30003G08MPS 6000 SCT030 TX31/1713Z TN22/1721Z TEMPO 1718/1721 4000 -SHRA BKN016 SCT020CB

أرصاد الطقس والتوقعات من أكثر من 4000 مطار (تقارير الطقس للمطار METAR والتنبؤ بالطقس بالمطارTAF).

المحطات المتاحة هي النقط الصفراء والحمراء على الخريطة.

حرك المؤشر فوق النقطة لمعرفة اسم المحطة.

ثم انقر لمعرفة أرصاد وتوقعات الطقس.

لتغيير الخارطة: اضغط على الأزرار الخضراء مع رمز الصليب الأسود للتكبير. على الزر الأخضر مع شرطة للتصغير، أو على الأسهم الخضراء للخرائط المجاورة.


METAR-TAF: